sensor_id;sensor_type;location;lat;lon;timestamp;P1;durP1;ratioP1;P2;durP2;ratioP2
53207;SDS011;39093;52.788;6.940;2024-02-15T00:01:03;94.72;;;45.03;;
53207;SDS011;39093;52.788;6.940;2024-02-15T00:03:30;93.35;;;47.70;;
53207;SDS011;39093;52.788;6.940;2024-02-15T00:05:58;89.03;;;46.08;;
53207;SDS011;39093;52.788;6.940;2024-02-15T00:08:25;81.38;;;44.75;;
53207;SDS011;39093;52.788;6.940;2024-02-15T00:10:53;85.82;;;44.65;;
53207;SDS011;39093;52.788;6.940;2024-02-15T00:13:20;102.80;;;47.47;;
53207;SDS011;39093;52.788;6.940;2024-02-15T00:15:48;85.82;;;42.33;;
53207;SDS011;39093;52.788;6.940;2024-02-15T00:18:15;80.40;;;40.35;;
53207;SDS011;39093;52.788;6.940;2024-02-15T00:20:43;80.15;;;39.47;;
53207;SDS011;39093;52.788;6.940;2024-02-15T00:23:11;75.70;;;39.03;;
53207;SDS011;39093;52.788;6.940;2024-02-15T00:25:38;83.03;;;39.35;;
53207;SDS011;39093;52.788;6.940;2024-02-15T00:28:06;77.65;;;38.45;;
53207;SDS011;39093;52.788;6.940;2024-02-15T00:30:33;73.57;;;37.92;;
53207;SDS011;39093;52.788;6.940;2024-02-15T00:33:00;71.55;;;36.17;;
53207;SDS011;39093;52.788;6.940;2024-02-15T00:35:29;75.68;;;37.83;;
53207;SDS011;39093;52.788;6.940;2024-02-15T00:37:57;68.63;;;34.00;;
53207;SDS011;39093;52.788;6.940;2024-02-15T00:40:24;59.38;;;31.70;;
53207;SDS011;39093;52.788;6.940;2024-02-15T00:42:51;57.97;;;29.35;;
53207;SDS011;39093;52.788;6.940;2024-02-15T00:45:18;56.13;;;27.42;;
53207;SDS011;39093;52.788;6.940;2024-02-15T00:47:45;50.42;;;25.77;;
53207;SDS011;39093;52.788;6.940;2024-02-15T00:50:12;43.03;;;23.38;;
53207;SDS011;39093;52.788;6.940;2024-02-15T00:52:39;46.72;;;23.33;;
53207;SDS011;39093;52.788;6.940;2024-02-15T00:55:06;42.55;;;22.20;;
53207;SDS011;39093;52.788;6.940;2024-02-15T00:57:34;40.92;;;20.85;;
53207;SDS011;39093;52.788;6.940;2024-02-15T01:00:01;39.35;;;20.42;;
53207;SDS011;39093;52.788;6.940;2024-02-15T01:02:30;44.88;;;21.98;;
53207;SDS011;39093;52.788;6.940;2024-02-15T01:04:57;48.15;;;22.40;;
53207;SDS011;39093;52.788;6.940;2024-02-15T01:07:25;42.67;;;22.83;;
53207;SDS011;39093;52.788;6.940;2024-02-15T01:09:54;41.95;;;20.95;;
53207;SDS011;39093;52.788;6.940;2024-02-15T01:12:21;42.20;;;22.95;;
53207;SDS011;39093;52.788;6.940;2024-02-15T01:14:48;48.97;;;23.88;;
53207;SDS011;39093;52.788;6.940;2024-02-15T01:17:15;52.33;;;23.88;;
53207;SDS011;39093;52.788;6.940;2024-02-15T01:19:43;48.35;;;24.17;;
53207;SDS011;39093;52.788;6.940;2024-02-15T01:22:10;47.33;;;24.02;;
53207;SDS011;39093;52.788;6.940;2024-02-15T01:24:37;54.53;;;26.15;;
53207;SDS011;39093;52.788;6.940;2024-02-15T01:27:04;54.83;;;26.10;;
53207;SDS011;39093;52.788;6.940;2024-02-15T01:29:34;61.90;;;26.85;;
53207;SDS011;39093;52.788;6.940;2024-02-15T01:32:01;64.22;;;27.58;;
53207;SDS011;39093;52.788;6.940;2024-02-15T01:34:28;73.68;;;28.75;;
53207;SDS011;39093;52.788;6.940;2024-02-15T01:36:55;73.78;;;27.63;;
53207;SDS011;39093;52.788;6.940;2024-02-15T01:39:22;72.65;;;28.63;;
53207;SDS011;39093;52.788;6.940;2024-02-15T01:41:49;66.28;;;27.73;;
53207;SDS011;39093;52.788;6.940;2024-02-15T01:44:18;74.38;;;29.40;;
53207;SDS011;39093;52.788;6.940;2024-02-15T01:46:47;69.90;;;27.42;;
53207;SDS011;39093;52.788;6.940;2024-02-15T01:49:15;82.10;;;29.88;;
53207;SDS011;39093;52.788;6.940;2024-02-15T01:51:43;81.90;;;31.17;;
53207;SDS011;39093;52.788;6.940;2024-02-15T01:54:11;69.68;;;29.77;;
53207;SDS011;39093;52.788;6.940;2024-02-15T01:56:41;90.00;;;30.20;;
53207;SDS011;39093;52.788;6.940;2024-02-15T01:59:10;66.38;;;26.85;;
53207;SDS011;39093;52.788;6.940;2024-02-15T02:01:41;78.18;;;29.10;;
53207;SDS011;39093;52.788;6.940;2024-02-15T02:04:09;68.22;;;27.30;;
53207;SDS011;39093;52.788;6.940;2024-02-15T02:06:39;66.38;;;29.02;;
53207;SDS011;39093;52.788;6.940;2024-02-15T02:09:10;79.07;;;29.75;;
53207;SDS011;39093;52.788;6.940;2024-02-15T02:11:43;63.50;;;29.88;;
53207;SDS011;39093;52.788;6.940;2024-02-15T02:14:12;66.32;;;28.05;;
53207;SDS011;39093;52.788;6.940;2024-02-15T02:16:39;75.18;;;29.95;;
53207;SDS011;39093;52.788;6.940;2024-02-15T02:19:06;71.80;;;29.58;;
53207;SDS011;39093;52.788;6.940;2024-02-15T02:21:36;66.75;;;28.83;;
53207;SDS011;39093;52.788;6.940;2024-02-15T02:24:08;67.35;;;29.02;;
53207;SDS011;39093;52.788;6.940;2024-02-15T02:26:47;69.45;;;27.85;;
53207;SDS011;39093;52.788;6.940;2024-02-15T02:29:15;55.00;;;27.17;;
53207;SDS011;39093;52.788;6.940;2024-02-15T02:31:42;62.38;;;27.17;;
53207;SDS011;39093;52.788;6.940;2024-02-15T02:34:09;51.28;;;24.10;;
53207;SDS011;39093;52.788;6.940;2024-02-15T02:36:37;51.60;;;24.67;;
53207;SDS011;39093;52.788;6.940;2024-02-15T02:39:04;49.83;;;24.20;;
53207;SDS011;39093;52.788;6.940;2024-02-15T02:41:31;50.63;;;24.13;;
53207;SDS011;39093;52.788;6.940;2024-02-15T02:43:58;52.20;;;23.67;;
53207;SDS011;39093;52.788;6.940;2024-02-15T02:46:25;51.63;;;22.63;;
53207;SDS011;39093;52.788;6.940;2024-02-15T02:48:52;53.55;;;23.35;;
53207;SDS011;39093;52.788;6.940;2024-02-15T02:51:19;50.65;;;22.45;;
53207;SDS011;39093;52.788;6.940;2024-02-15T02:53:46;56.65;;;24.20;;
53207;SDS011;39093;52.788;6.940;2024-02-15T02:56:13;52.72;;;24.75;;
53207;SDS011;39093;52.788;6.940;2024-02-15T02:58:42;53.47;;;25.52;;
53207;SDS011;39093;52.788;6.940;2024-02-15T03:01:10;44.88;;;26.17;;
53207;SDS011;39093;52.788;6.940;2024-02-15T03:03:40;55.38;;;27.15;;
53207;SDS011;39093;52.788;6.940;2024-02-15T03:06:07;64.88;;;29.95;;
53207;SDS011;39093;52.788;6.940;2024-02-15T03:08:34;58.78;;;30.45;;
53207;SDS011;39093;52.788;6.940;2024-02-15T03:11:01;57.60;;;32.33;;
53207;SDS011;39093;52.788;6.940;2024-02-15T03:13:28;59.78;;;32.28;;
53207;SDS011;39093;52.788;6.940;2024-02-15T03:15:55;68.07;;;34.30;;
53207;SDS011;39093;52.788;6.940;2024-02-15T03:18:22;58.15;;;32.13;;
53207;SDS011;39093;52.788;6.940;2024-02-15T03:20:50;66.85;;;34.08;;
53207;SDS011;39093;52.788;6.940;2024-02-15T03:23:17;67.47;;;34.92;;
53207;SDS011;39093;52.788;6.940;2024-02-15T03:25:43;70.28;;;36.13;;
53207;SDS011;39093;52.788;6.940;2024-02-15T03:28:10;62.25;;;36.17;;
53207;SDS011;39093;52.788;6.940;2024-02-15T03:30:37;69.93;;;36.35;;
53207;SDS011;39093;52.788;6.940;2024-02-15T03:33:04;72.93;;;36.78;;
53207;SDS011;39093;52.788;6.940;2024-02-15T03:35:33;69.53;;;35.75;;
53207;SDS011;39093;52.788;6.940;2024-02-15T03:38:01;64.38;;;33.63;;
53207;SDS011;39093;52.788;6.940;2024-02-15T03:40:27;73.22;;;33.95;;
53207;SDS011;39093;52.788;6.940;2024-02-15T03:42:56;72.78;;;33.97;;
53207;SDS011;39093;52.788;6.940;2024-02-15T03:45:23;75.95;;;34.85;;
53207;SDS011;39093;52.788;6.940;2024-02-15T03:47:54;63.17;;;30.65;;
53207;SDS011;39093;52.788;6.940;2024-02-15T03:50:22;64.88;;;30.67;;
53207;SDS011;39093;52.788;6.940;2024-02-15T03:52:49;64.10;;;29.67;;
53207;SDS011;39093;52.788;6.940;2024-02-15T03:55:17;75.40;;;30.23;;
53207;SDS011;39093;52.788;6.940;2024-02-15T03:57:45;61.63;;;29.67;;
53207;SDS011;39093;52.788;6.940;2024-02-15T04:00:13;63.58;;;28.70;;
53207;SDS011;39093;52.788;6.940;2024-02-15T04:02:48;64.53;;;29.88;;
53207;SDS011;39093;52.788;6.940;2024-02-15T04:05:16;63.20;;;28.48;;
53207;SDS011;39093;52.788;6.940;2024-02-15T04:07:45;66.68;;;30.30;;
53207;SDS011;39093;52.788;6.940;2024-02-15T04:10:12;66.15;;;29.52;;
53207;SDS011;39093;52.788;6.940;2024-02-15T04:12:40;61.47;;;29.65;;
53207;SDS011;39093;52.788;6.940;2024-02-15T04:15:10;66.82;;;31.15;;
53207;SDS011;39093;52.788;6.940;2024-02-15T04:17:43;69.60;;;31.77;;
53207;SDS011;39093;52.788;6.940;2024-02-15T04:20:11;56.45;;;30.45;;
53207;SDS011;39093;52.788;6.940;2024-02-15T04:22:39;55.75;;;30.75;;
53207;SDS011;39093;52.788;6.940;2024-02-15T04:25:09;62.95;;;31.15;;
53207;SDS011;39093;52.788;6.940;2024-02-15T04:27:38;59.88;;;32.17;;
53207;SDS011;39093;52.788;6.940;2024-02-15T04:30:05;67.65;;;32.92;;
53207;SDS011;39093;52.788;6.940;2024-02-15T04:32:35;63.90;;;33.03;;
53207;SDS011;39093;52.788;6.940;2024-02-15T04:35:02;56.75;;;32.35;;
53207;SDS011;39093;52.788;6.940;2024-02-15T04:37:33;62.80;;;34.65;;
53207;SDS011;39093;52.788;6.940;2024-02-15T04:40:01;64.38;;;33.85;;
53207;SDS011;39093;52.788;6.940;2024-02-15T04:42:35;64.80;;;33.35;;
53207;SDS011;39093;52.788;6.940;2024-02-15T04:45:11;63.92;;;33.65;;
53207;SDS011;39093;52.788;6.940;2024-02-15T04:47:40;67.97;;;36.75;;
53207;SDS011;39093;52.788;6.940;2024-02-15T04:50:09;66.18;;;36.92;;
53207;SDS011;39093;52.788;6.940;2024-02-15T04:52:36;62.42;;;34.80;;
53207;SDS011;39093;52.788;6.940;2024-02-15T04:55:03;63.75;;;35.50;;
53207;SDS011;39093;52.788;6.940;2024-02-15T04:57:34;64.03;;;37.72;;
53207;SDS011;39093;52.788;6.940;2024-02-15T05:00:03;71.13;;;37.90;;
53207;SDS011;39093;52.788;6.940;2024-02-15T05:02:38;60.95;;;35.63;;
53207;SDS011;39093;52.788;6.940;2024-02-15T05:05:10;58.05;;;34.90;;
53207;SDS011;39093;52.788;6.940;2024-02-15T05:07:39;65.80;;;35.83;;
53207;SDS011;39093;52.788;6.940;2024-02-15T05:10:07;63.42;;;37.38;;
53207;SDS011;39093;52.788;6.940;2024-02-15T05:12:37;61.33;;;36.05;;
53207;SDS011;39093;52.788;6.940;2024-02-15T05:15:04;67.90;;;37.00;;
53207;SDS011;39093;52.788;6.940;2024-02-15T05:17:39;63.88;;;35.90;;
53207;SDS011;39093;52.788;6.940;2024-02-15T05:20:10;59.97;;;35.63;;
53207;SDS011;39093;52.788;6.940;2024-02-15T05:22:40;58.08;;;36.50;;
53207;SDS011;39093;52.788;6.940;2024-02-15T05:25:16;64.82;;;36.78;;
53207;SDS011;39093;52.788;6.940;2024-02-15T05:27:51;54.60;;;35.05;;
53207;SDS011;39093;52.788;6.940;2024-02-15T05:30:20;56.67;;;33.47;;
53207;SDS011;39093;52.788;6.940;2024-02-15T05:32:48;61.38;;;35.55;;
53207;SDS011;39093;52.788;6.940;2024-02-15T05:35:16;57.17;;;36.15;;
53207;SDS011;39093;52.788;6.940;2024-02-15T05:37:44;71.50;;;36.97;;
53207;SDS011;39093;52.788;6.940;2024-02-15T05:40:12;57.72;;;35.45;;
53207;SDS011;39093;52.788;6.940;2024-02-15T05:42:42;57.42;;;34.65;;
53207;SDS011;39093;52.788;6.940;2024-02-15T05:47:52;57.67;;;33.55;;
53207;SDS011;39093;52.788;6.940;2024-02-15T05:50:19;61.70;;;36.22;;
53207;SDS011;39093;52.788;6.940;2024-02-15T05:52:47;59.58;;;33.75;;
53207;SDS011;39093;52.788;6.940;2024-02-15T05:55:14;57.47;;;33.35;;
53207;SDS011;39093;52.788;6.940;2024-02-15T05:57:43;56.33;;;32.55;;
53207;SDS011;39093;52.788;6.940;2024-02-15T06:00:10;53.65;;;32.95;;
53207;SDS011;39093;52.788;6.940;2024-02-15T06:02:48;59.17;;;35.08;;
53207;SDS011;39093;52.788;6.940;2024-02-15T06:05:16;51.47;;;31.63;;
53207;SDS011;39093;52.788;6.940;2024-02-15T06:07:44;54.17;;;33.40;;
53207;SDS011;39093;52.788;6.940;2024-02-15T06:10:13;52.72;;;31.67;;
53207;SDS011;39093;52.788;6.940;2024-02-15T06:12:42;54.35;;;32.65;;
53207;SDS011;39093;52.788;6.940;2024-02-15T06:15:09;65.13;;;30.90;;
53207;SDS011;39093;52.788;6.940;2024-02-15T06:17:42;53.70;;;30.90;;
53207;SDS011;39093;52.788;6.940;2024-02-15T06:20:13;53.72;;;31.27;;
53207;SDS011;39093;52.788;6.940;2024-02-15T06:22:44;49.78;;;28.80;;
53207;SDS011;39093;52.788;6.940;2024-02-15T06:25:11;57.50;;;30.42;;
53207;SDS011;39093;52.788;6.940;2024-02-15T06:27:38;52.97;;;29.50;;
53207;SDS011;39093;52.788;6.940;2024-02-15T06:30:08;56.78;;;29.52;;
53207;SDS011;39093;52.788;6.940;2024-02-15T06:32:54;50.22;;;29.23;;
53207;SDS011;39093;52.788;6.940;2024-02-15T06:35:47;52.35;;;28.90;;
53207;SDS011;39093;52.788;6.940;2024-02-15T06:38:33;43.35;;;27.40;;
53207;SDS011;39093;52.788;6.940;2024-02-15T06:41:18;46.00;;;26.55;;
53207;SDS011;39093;52.788;6.940;2024-02-15T06:43:47;49.22;;;27.17;;
53207;SDS011;39093;52.788;6.940;2024-02-15T06:46:14;48.50;;;26.73;;
53207;SDS011;39093;52.788;6.940;2024-02-15T06:48:42;45.80;;;26.13;;
53207;SDS011;39093;52.788;6.940;2024-02-15T06:51:13;58.67;;;27.15;;
53207;SDS011;39093;52.788;6.940;2024-02-15T06:53:41;45.85;;;25.42;;
53207;SDS011;39093;52.788;6.940;2024-02-15T06:56:09;47.35;;;24.88;;
53207;SDS011;39093;52.788;6.940;2024-02-15T06:58:36;46.78;;;24.17;;
53207;SDS011;39093;52.788;6.940;2024-02-15T07:01:03;52.50;;;24.45;;
53207;SDS011;39093;52.788;6.940;2024-02-15T07:03:31;46.95;;;24.30;;
53207;SDS011;39093;52.788;6.940;2024-02-15T07:05:58;47.40;;;23.85;;
53207;SDS011;39093;52.788;6.940;2024-02-15T07:08:26;37.60;;;22.05;;
53207;SDS011;39093;52.788;6.940;2024-02-15T07:10:53;48.70;;;23.90;;
53207;SDS011;39093;52.788;6.940;2024-02-15T07:13:20;50.63;;;24.38;;
53207;SDS011;39093;52.788;6.940;2024-02-15T07:15:47;43.80;;;24.10;;
53207;SDS011;39093;52.788;6.940;2024-02-15T07:18:15;46.72;;;24.95;;
53207;SDS011;39093;52.788;6.940;2024-02-15T07:20:45;45.38;;;24.27;;
53207;SDS011;39093;52.788;6.940;2024-02-15T07:23:12;46.53;;;24.20;;
53207;SDS011;39093;52.788;6.940;2024-02-15T07:25:40;44.30;;;24.40;;
53207;SDS011;39093;52.788;6.940;2024-02-15T07:28:07;50.97;;;26.10;;
53207;SDS011;39093;52.788;6.940;2024-02-15T07:30:35;47.45;;;24.45;;
53207;SDS011;39093;52.788;6.940;2024-02-15T07:33:03;43.13;;;24.30;;
53207;SDS011;39093;52.788;6.940;2024-02-15T07:35:30;54.95;;;26.20;;
53207;SDS011;39093;52.788;6.940;2024-02-15T07:37:57;51.38;;;25.83;;
53207;SDS011;39093;52.788;6.940;2024-02-15T07:40:27;49.75;;;24.58;;
53207;SDS011;39093;52.788;6.940;2024-02-15T07:42:56;42.55;;;24.05;;
53207;SDS011;39093;52.788;6.940;2024-02-15T07:45:24;39.17;;;23.25;;
53207;SDS011;39093;52.788;6.940;2024-02-15T07:47:51;38.75;;;23.40;;
53207;SDS011;39093;52.788;6.940;2024-02-15T07:50:18;36.75;;;21.90;;
53207;SDS011;39093;52.788;6.940;2024-02-15T07:52:47;45.45;;;23.15;;
53207;SDS011;39093;52.788;6.940;2024-02-15T07:55:14;52.75;;;22.38;;
53207;SDS011;39093;52.788;6.940;2024-02-15T07:57:41;45.55;;;21.85;;
53207;SDS011;39093;52.788;6.940;2024-02-15T08:00:08;38.83;;;20.75;;
53207;SDS011;39093;52.788;6.940;2024-02-15T08:02:38;44.25;;;21.17;;
53207;SDS011;39093;52.788;6.940;2024-02-15T08:05:12;40.20;;;20.17;;
53207;SDS011;39093;52.788;6.940;2024-02-15T08:07:41;37.45;;;19.60;;
53207;SDS011;39093;52.788;6.940;2024-02-15T08:10:11;36.88;;;19.60;;
53207;SDS011;39093;52.788;6.940;2024-02-15T08:12:45;42.33;;;20.00;;
53207;SDS011;39093;52.788;6.940;2024-02-15T08:15:12;37.33;;;20.80;;
53207;SDS011;39093;52.788;6.940;2024-02-15T08:17:40;38.80;;;19.95;;
53207;SDS011;39093;52.788;6.940;2024-02-15T08:20:11;34.15;;;19.63;;
53207;SDS011;39093;52.788;6.940;2024-02-15T08:22:40;33.75;;;18.17;;
53207;SDS011;39093;52.788;6.940;2024-02-15T08:25:08;27.00;;;19.27;;
53207;SDS011;39093;52.788;6.940;2024-02-15T08:27:39;36.58;;;19.77;;
53207;SDS011;39093;52.788;6.940;2024-02-15T08:30:09;29.30;;;18.48;;
53207;SDS011;39093;52.788;6.940;2024-02-15T08:32:38;35.78;;;19.00;;
53207;SDS011;39093;52.788;6.940;2024-02-15T08:35:06;30.10;;;18.35;;
53207;SDS011;39093;52.788;6.940;2024-02-15T08:37:34;34.65;;;19.33;;
53207;SDS011;39093;52.788;6.940;2024-02-15T08:40:05;34.05;;;18.00;;
53207;SDS011;39093;52.788;6.940;2024-02-15T08:42:38;32.88;;;18.00;;
53207;SDS011;39093;52.788;6.940;2024-02-15T08:45:06;32.38;;;18.48;;
53207;SDS011;39093;52.788;6.940;2024-02-15T08:47:39;28.30;;;17.42;;
53207;SDS011;39093;52.788;6.940;2024-02-15T08:50:08;34.63;;;18.58;;
53207;SDS011;39093;52.788;6.940;2024-02-15T08:52:39;30.48;;;18.58;;
53207;SDS011;39093;52.788;6.940;2024-02-15T08:55:07;26.27;;;17.48;;
53207;SDS011;39093;52.788;6.940;2024-02-15T08:57:44;29.25;;;16.67;;
53207;SDS011;39093;52.788;6.940;2024-02-15T09:00:11;28.52;;;17.73;;
53207;SDS011;39093;52.788;6.940;2024-02-15T09:02:43;24.38;;;17.40;;
53207;SDS011;39093;52.788;6.940;2024-02-15T09:05:12;34.17;;;19.10;;
53207;SDS011;39093;52.788;6.940;2024-02-15T09:07:45;26.60;;;16.88;;
53207;SDS011;39093;52.788;6.940;2024-02-15T09:10:17;25.85;;;15.93;;
53207;SDS011;39093;52.788;6.940;2024-02-15T09:12:45;25.13;;;15.98;;
53207;SDS011;39093;52.788;6.940;2024-02-15T09:15:15;24.05;;;16.38;;
53207;SDS011;39093;52.788;6.940;2024-02-15T09:17:43;22.65;;;14.70;;
53207;SDS011;39093;52.788;6.940;2024-02-15T09:20:13;26.58;;;15.00;;
53207;SDS011;39093;52.788;6.940;2024-02-15T09:22:42;27.67;;;16.13;;
53207;SDS011;39093;52.788;6.940;2024-02-15T09:25:19;25.90;;;15.00;;
53207;SDS011;39093;52.788;6.940;2024-02-15T09:27:46;19.10;;;13.50;;
53207;SDS011;39093;52.788;6.940;2024-02-15T09:30:13;24.45;;;14.32;;
53207;SDS011;39093;52.788;6.940;2024-02-15T09:32:41;25.65;;;14.52;;
53207;SDS011;39093;52.788;6.940;2024-02-15T09:35:10;25.23;;;15.35;;
53207;SDS011;39093;52.788;6.940;2024-02-15T09:37:44;28.42;;;14.57;;
53207;SDS011;39093;52.788;6.940;2024-02-15T09:40:12;26.10;;;15.00;;
53207;SDS011;39093;52.788;6.940;2024-02-15T09:42:42;21.88;;;15.43;;
53207;SDS011;39093;52.788;6.940;2024-02-15T09:45:11;24.70;;;15.65;;
53207;SDS011;39093;52.788;6.940;2024-02-15T09:47:42;21.65;;;14.07;;
53207;SDS011;39093;52.788;6.940;2024-02-15T09:50:10;26.65;;;15.18;;
53207;SDS011;39093;52.788;6.940;2024-02-15T09:52:43;21.20;;;13.40;;
53207;SDS011;39093;52.788;6.940;2024-02-15T09:55:18;22.08;;;13.43;;
53207;SDS011;39093;52.788;6.940;2024-02-15T09:57:46;18.80;;;14.27;;
53207;SDS011;39093;52.788;6.940;2024-02-15T10:00:14;23.48;;;13.43;;
53207;SDS011;39093;52.788;6.940;2024-02-15T10:02:44;24.48;;;15.10;;
53207;SDS011;39093;52.788;6.940;2024-02-15T10:05:17;23.52;;;12.80;;
53207;SDS011;39093;52.788;6.940;2024-02-15T10:07:48;19.83;;;11.98;;
53207;SDS011;39093;52.788;6.940;2024-02-15T10:10:25;12.80;;;11.10;;
53207;SDS011;39093;52.788;6.940;2024-02-15T10:13:15;19.25;;;11.98;;
53207;SDS011;39093;52.788;6.940;2024-02-15T10:15:54;14.13;;;11.52;;
53207;SDS011;39093;52.788;6.940;2024-02-15T10:18:21;19.77;;;11.55;;
53207;SDS011;39093;52.788;6.940;2024-02-15T10:20:57;14.30;;;10.90;;
53207;SDS011;39093;52.788;6.940;2024-02-15T10:23:24;14.48;;;10.45;;
53207;SDS011;39093;52.788;6.940;2024-02-15T10:25:52;16.20;;;10.60;;
53207;SDS011;39093;52.788;6.940;2024-02-15T10:28:22;17.35;;;10.57;;
53207;SDS011;39093;52.788;6.940;2024-02-15T10:30:53;16.58;;;10.70;;
53207;SDS011;39093;52.788;6.940;2024-02-15T10:33:26;16.77;;;10.40;;
53207;SDS011;39093;52.788;6.940;2024-02-15T10:36:07;16.70;;;11.63;;
53207;SDS011;39093;52.788;6.940;2024-02-15T10:38:35;14.10;;;9.80;;
53207;SDS011;39093;52.788;6.940;2024-02-15T10:41:03;14.70;;;9.70;;
53207;SDS011;39093;52.788;6.940;2024-02-15T10:43:35;14.68;;;11.13;;
53207;SDS011;39093;52.788;6.940;2024-02-15T10:46:07;14.25;;;10.65;;
53207;SDS011;39093;52.788;6.940;2024-02-15T10:48:37;16.30;;;9.45;;
53207;SDS011;39093;52.788;6.940;2024-02-15T10:51:08;12.43;;;11.13;;
53207;SDS011;39093;52.788;6.940;2024-02-15T10:53:36;12.93;;;10.35;;
53207;SDS011;39093;52.788;6.940;2024-02-15T10:58:53;9.43;;;7.43;;
53207;SDS011;39093;52.788;6.940;2024-02-15T11:01:26;10.98;;;7.60;;
53207;SDS011;39093;52.788;6.940;2024-02-15T11:04:03;11.43;;;7.57;;
53207;SDS011;39093;52.788;6.940;2024-02-15T11:06:35;9.00;;;7.80;;
53207;SDS011;39093;52.788;6.940;2024-02-15T11:09:09;8.40;;;6.43;;
53207;SDS011;39093;52.788;6.940;2024-02-15T11:11:38;8.20;;;6.68;;
53207;SDS011;39093;52.788;6.940;2024-02-15T11:16:56;8.95;;;6.80;;
53207;SDS011;39093;52.788;6.940;2024-02-15T11:21:59;8.38;;;6.40;;
53207;SDS011;39093;52.788;6.940;2024-02-15T11:24:30;9.88;;;7.00;;
53207;SDS011;39093;52.788;6.940;2024-02-15T11:27:06;8.68;;;6.78;;
53207;SDS011;39093;52.788;6.940;2024-02-15T11:35:12;8.93;;;6.47;;
53207;SDS011;39093;52.788;6.940;2024-02-15T11:40:20;9.43;;;6.15;;
53207;SDS011;39093;52.788;6.940;2024-02-15T11:42:49;10.10;;;6.53;;
53207;SDS011;39093;52.788;6.940;2024-02-15T11:45:19;7.90;;;6.40;;
53207;SDS011;39093;52.788;6.940;2024-02-15T11:47:48;7.30;;;6.60;;
53207;SDS011;39093;52.788;6.940;2024-02-15T11:50:17;8.30;;;6.53;;
53207;SDS011;39093;52.788;6.940;2024-02-15T11:52:46;8.43;;;7.15;;
53207;SDS011;39093;52.788;6.940;2024-02-15T11:55:18;7.50;;;6.45;;
53207;SDS011;39093;52.788;6.940;2024-02-15T11:57:58;10.55;;;6.68;;
53207;SDS011;39093;52.788;6.940;2024-02-15T12:00:32;9.15;;;7.00;;
53207;SDS011;39093;52.788;6.940;2024-02-15T12:03:18;13.80;;;6.85;;
53207;SDS011;39093;52.788;6.940;2024-02-15T12:06:06;9.48;;;6.55;;
53207;SDS011;39093;52.788;6.940;2024-02-15T12:08:53;10.73;;;6.78;;
53207;SDS011;39093;52.788;6.940;2024-02-15T12:11:40;11.32;;;7.28;;
53207;SDS011;39093;52.788;6.940;2024-02-15T12:14:25;9.55;;;6.30;;
53207;SDS011;39093;52.788;6.940;2024-02-15T12:17:11;13.77;;;6.88;;
53207;SDS011;39093;52.788;6.940;2024-02-15T12:20:01;7.20;;;6.25;;
53207;SDS011;39093;52.788;6.940;2024-02-15T12:22:56;8.25;;;6.57;;
53207;SDS011;39093;52.788;6.940;2024-02-15T12:25:25;9.68;;;7.00;;
53207;SDS011;39093;52.788;6.940;2024-02-15T12:27:54;10.13;;;6.45;;
53207;SDS011;39093;52.788;6.940;2024-02-15T12:30:22;10.82;;;6.13;;
53207;SDS011;39093;52.788;6.940;2024-02-15T12:32:52;12.45;;;6.18;;
53207;SDS011;39093;52.788;6.940;2024-02-15T12:35:35;7.22;;;6.43;;
53207;SDS011;39093;52.788;6.940;2024-02-15T12:38:02;12.13;;;7.65;;
53207;SDS011;39093;52.788;6.940;2024-02-15T12:40:35;12.18;;;6.30;;
53207;SDS011;39093;52.788;6.940;2024-02-15T12:43:07;10.15;;;6.13;;
53207;SDS011;39093;52.788;6.940;2024-02-15T12:45:35;9.07;;;6.72;;
53207;SDS011;39093;52.788;6.940;2024-02-15T12:48:04;14.65;;;7.85;;
53207;SDS011;39093;52.788;6.940;2024-02-15T12:50:32;13.93;;;9.32;;
53207;SDS011;39093;52.788;6.940;2024-02-15T12:53:03;17.88;;;8.75;;
53207;SDS011;39093;52.788;6.940;2024-02-15T12:55:33;14.43;;;6.75;;
53207;SDS011;39093;52.788;6.940;2024-02-15T12:58:03;15.77;;;8.00;;
53207;SDS011;39093;52.788;6.940;2024-02-15T13:00:35;16.60;;;8.20;;
53207;SDS011;39093;52.788;6.940;2024-02-15T13:03:07;13.98;;;8.38;;
53207;SDS011;39093;52.788;6.940;2024-02-15T13:05:38;17.75;;;8.57;;
53207;SDS011;39093;52.788;6.940;2024-02-15T13:08:07;16.65;;;9.25;;
53207;SDS011;39093;52.788;6.940;2024-02-15T13:10:41;12.98;;;7.90;;
53207;SDS011;39093;52.788;6.940;2024-02-15T13:13:09;17.98;;;8.20;;
53207;SDS011;39093;52.788;6.940;2024-02-15T13:15:36;18.25;;;9.02;;
53207;SDS011;39093;52.788;6.940;2024-02-15T13:18:04;16.63;;;8.82;;
53207;SDS011;39093;52.788;6.940;2024-02-15T13:20:32;21.25;;;8.85;;
53207;SDS011;39093;52.788;6.940;2024-02-15T13:23:05;15.05;;;8.05;;
53207;SDS011;39093;52.788;6.940;2024-02-15T13:25:41;14.20;;;8.60;;
53207;SDS011;39093;52.788;6.940;2024-02-15T13:28:12;14.43;;;8.60;;
53207;SDS011;39093;52.788;6.940;2024-02-15T13:30:40;21.45;;;9.23;;
53207;SDS011;39093;52.788;6.940;2024-02-15T13:33:11;14.48;;;9.35;;
53207;SDS011;39093;52.788;6.940;2024-02-15T13:35:39;18.02;;;8.30;;
53207;SDS011;39093;52.788;6.940;2024-02-15T13:38:07;17.40;;;8.70;;
53207;SDS011;39093;52.788;6.940;2024-02-15T13:40:41;21.45;;;9.75;;
53207;SDS011;39093;52.788;6.940;2024-02-15T13:43:08;24.33;;;9.05;;
53207;SDS011;39093;52.788;6.940;2024-02-15T13:45:42;15.52;;;9.02;;
53207;SDS011;39093;52.788;6.940;2024-02-15T13:48:11;18.35;;;8.70;;
53207;SDS011;39093;52.788;6.940;2024-02-15T13:50:42;19.05;;;9.52;;
53207;SDS011;39093;52.788;6.940;2024-02-15T13:53:11;19.08;;;9.48;;
53207;SDS011;39093;52.788;6.940;2024-02-15T13:55:40;18.83;;;9.23;;
53207;SDS011;39093;52.788;6.940;2024-02-15T13:58:07;17.42;;;9.20;;
53207;SDS011;39093;52.788;6.940;2024-02-15T14:00:39;19.02;;;9.55;;
53207;SDS011;39093;52.788;6.940;2024-02-15T14:03:10;18.73;;;10.50;;
53207;SDS011;39093;52.788;6.940;2024-02-15T14:05:37;20.20;;;8.90;;
53207;SDS011;39093;52.788;6.940;2024-02-15T14:08:07;15.95;;;8.73;;
53207;SDS011;39093;52.788;6.940;2024-02-15T14:10:35;19.33;;;9.63;;
53207;SDS011;39093;52.788;6.940;2024-02-15T14:13:03;16.73;;;8.73;;
53207;SDS011;39093;52.788;6.940;2024-02-15T14:15:36;15.20;;;9.35;;
53207;SDS011;39093;52.788;6.940;2024-02-15T14:18:05;16.98;;;10.32;;
53207;SDS011;39093;52.788;6.940;2024-02-15T14:20:34;21.45;;;10.05;;
53207;SDS011;39093;52.788;6.940;2024-02-15T14:23:02;22.45;;;9.77;;
53207;SDS011;39093;52.788;6.940;2024-02-15T14:25:32;22.00;;;10.48;;
53207;SDS011;39093;52.788;6.940;2024-02-15T14:28:00;22.33;;;10.38;;
53207;SDS011;39093;52.788;6.940;2024-02-15T14:30:27;20.27;;;9.98;;
53207;SDS011;39093;52.788;6.940;2024-02-15T14:33:12;19.60;;;10.15;;
53207;SDS011;39093;52.788;6.940;2024-02-15T14:35:45;18.97;;;10.80;;
53207;SDS011;39093;52.788;6.940;2024-02-15T14:38:12;20.48;;;10.73;;
53207;SDS011;39093;52.788;6.940;2024-02-15T14:40:41;22.45;;;10.98;;
53207;SDS011;39093;52.788;6.940;2024-02-15T14:43:17;24.80;;;11.38;;
53207;SDS011;39093;52.788;6.940;2024-02-15T14:45:50;19.88;;;11.00;;
53207;SDS011;39093;52.788;6.940;2024-02-15T14:48:18;19.27;;;10.98;;
53207;SDS011;39093;52.788;6.940;2024-02-15T14:50:47;18.25;;;9.63;;
53207;SDS011;39093;52.788;6.940;2024-02-15T14:53:18;24.48;;;12.93;;
53207;SDS011;39093;52.788;6.940;2024-02-15T14:55:45;40.65;;;18.98;;
53207;SDS011;39093;52.788;6.940;2024-02-15T14:58:16;51.90;;;24.98;;
53207;SDS011;39093;52.788;6.940;2024-02-15T15:00:45;38.70;;;17.52;;